Airport View

Enter AWOS ICAO identifier for current METAR.

ex. KFNL

K9L2 080458Z AUTO 23014KT 10SM CLR 25/06 A2994 RMK AO2 SLP114 T02450063 $

8 Aug 2020 05:52

Other Area AWOS: KEDW - KMHV - KWJF - KPMD

TAF AMD KEDW 072310Z 0723/0903 24012KT 9999 SKC QNH2989INS TEMPO 0722/0803 24012KT 8000 FU SCT120 FU SCT120 BECMG 0722/0723 24018G25KT 9999 FEW120 510009 QNH2989INS FU FEW120 BECMG 0803/0804 VRB06KT 9999 SKC QNH2989INS BECMG 0818/0819 24015G25KT 9999 SKC 510009 QNH3000INS TX34/0723Z TN17/0813Z LAST NO AMDS AFT 0800 NEXT 0813